Time;durP1;ratioP1;P1;durP2;ratioP2;P2;SDS_P1;SDS_P2;PMS_P1;PMS_P2;Temp;Humidity;BMP_temperature;BMP_pressure;BME280_temperature;BME280_humidity;BME280_pressure;Samples;Min_cycle;Max_cycle;Signal;HPM_P1;HPM_P2
2022/02/22 00:00:34;;;;;;;30.40;4.80;;;6.90;99.90;;;;;;5073384;28;20440;-63
2022/02/22 00:03:01;;;;;;;25.77;5.73;;;6.90;99.90;;;;;;5073044;28;20445;-63
2022/02/22 00:05:28;;;;;;;29.23;6.67;;;6.90;99.90;;;;;;5073364;28;20448;-63
2022/02/22 00:07:54;;;;;;;33.03;6.30;;;6.90;99.90;;;;;;5072983;28;20483;-64
2022/02/22 00:10:23;;;;;;;22.90;4.67;;;6.80;99.90;;;;;;5075172;28;20542;-64
2022/02/22 00:12:50;;;;;;;30.03;5.60;;;6.80;99.90;;;;;;5077507;28;20452;-64
2022/02/22 00:15:17;;;;;;;22.50;5.00;;;6.80;99.90;;;;;;5077184;28;20517;-64
2022/02/22 00:17:44;;;;;;;31.10;6.67;;;6.80;99.90;;;;;;5077626;28;20480;-63
2022/02/22 00:20:12;;;;;;;20.60;4.77;;;6.80;99.90;;;;;;5077262;28;20561;-64
2022/02/22 00:22:39;;;;;;;25.63;4.77;;;6.70;99.90;;;;;;5077211;28;20453;-63
2022/02/22 00:25:11;;;;;;;22.30;5.10;;;6.80;99.90;;;;;;5077205;28;20476;-64
2022/02/22 00:27:39;;;;;;;25.37;4.63;;;6.80;99.90;;;;;;5077052;28;20479;-64
2022/02/22 00:30:08;;;;;;;36.43;6.20;;;6.80;99.90;;;;;;5077033;28;20480;-64
2022/02/22 00:32:34;;;;;;;25.57;4.40;;;6.80;99.90;;;;;;5077064;28;20448;-64
2022/02/22 00:35:01;;;;;;;21.90;5.60;;;6.90;99.90;;;;;;5076694;28;20455;-63
2022/02/22 00:37:28;;;;;;;22.20;4.20;;;6.90;99.90;;;;;;5076729;28;20927;-64
2022/02/22 00:39:55;;;;;;;22.03;4.93;;;6.90;99.90;;;;;;5077094;28;20440;-63
2022/02/22 00:42:24;;;;;;;26.83;5.33;;;7.00;99.90;;;;;;5077102;28;20480;-63
2022/02/22 00:44:53;;;;;;;29.10;5.03;;;7.00;99.90;;;;;;5077320;28;20523;-63
2022/02/22 00:47:20;;;;;;;26.53;5.33;;;7.00;99.90;;;;;;5077087;28;20826;-64
2022/02/22 00:49:46;;;;;;;25.57;4.83;;;7.00;99.90;;;;;;5076652;28;20890;-64
2022/02/22 00:52:13;;;;;;;29.73;5.57;;;7.00;99.90;;;;;;5076702;28;20440;-63
2022/02/22 00:54:40;;;;;;;25.30;4.83;;;7.00;99.90;;;;;;5076681;28;20799;-64
2022/02/22 00:57:07;;;;;;;22.67;4.50;;;7.00;99.90;;;;;;5076587;28;20465;-64
2022/02/22 00:59:33;;;;;;;28.83;4.83;;;7.00;99.90;;;;;;5076146;28;20465;-64
2022/02/22 01:02:01;;;;;;;23.80;5.20;;;7.00;99.90;;;;;;5076552;28;20444;-64
2022/02/22 01:04:28;;;;;;;24.03;4.97;;;7.00;99.90;;;;;;5076177;28;20436;-63
2022/02/22 01:06:55;;;;;;;31.60;6.60;;;7.00;99.90;;;;;;5076174;28;20471;-63
2022/02/22 01:09:22;;;;;;;29.97;5.57;;;6.90;99.90;;;;;;5075979;28;20473;-64
2022/02/22 01:11:49;;;;;;;27.60;5.33;;;6.90;99.90;;;;;;5076279;28;20476;-64
2022/02/22 01:14:15;;;;;;;24.13;4.53;;;6.90;99.90;;;;;;5076315;28;20445;-64
2022/02/22 01:16:42;;;;;;;30.40;5.83;;;6.90;99.90;;;;;;5076217;28;20507;-64
2022/02/22 01:19:11;;;;;;;15.73;4.03;;;6.90;99.90;;;;;;5076195;28;20471;-64
2022/02/22 01:21:38;;;;;;;26.90;6.47;;;6.90;99.90;;;;;;5075231;28;20449;-65
2022/02/22 01:24:06;;;;;;;27.67;4.27;;;6.80;99.90;;;;;;5076308;28;20441;-64
2022/02/22 01:26:34;;;;;;;21.53;5.53;;;6.70;99.90;;;;;;5076258;28;20459;-64
2022/02/22 01:29:02;;;;;;;40.10;7.20;;;6.80;99.90;;;;;;5076199;28;20576;-64
2022/02/22 01:31:29;;;;;;;20.03;4.77;;;6.70;99.90;;;;;;5076120;28;20476;-64
2022/02/22 01:33:57;;;;;;;23.57;6.00;;;6.60;99.90;;;;;;5075971;28;20506;-64
2022/02/22 01:36:26;;;;;;;26.57;4.90;;;6.60;99.90;;;;;;5075701;28;20535;-64
2022/02/22 01:38:53;;;;;;;24.87;5.07;;;6.60;99.90;;;;;;5075893;28;20476;-64
2022/02/22 01:41:20;;;;;;;41.33;5.80;;;6.50;99.90;;;;;;5075481;28;20989;-64
2022/02/22 01:43:48;;;;;;;40.17;6.37;;;6.50;99.90;;;;;;5076129;28;20798;-64
2022/02/22 01:46:15;;;;;;;28.43;5.70;;;6.50;99.90;;;;;;5075864;28;20852;-64
2022/02/22 01:48:42;;;;;;;28.53;5.07;;;6.50;99.90;;;;;;5075346;28;20465;-64
2022/02/22 01:51:09;;;;;;;22.73;5.33;;;6.50;99.90;;;;;;5075699;28;20481;-64
2022/02/22 01:53:37;;;;;;;28.13;5.30;;;6.50;99.90;;;;;;5075467;28;20947;-64
2022/02/22 01:56:07;;;;;;;23.20;4.53;;;6.50;99.90;;;;;;5075655;28;20449;-64
2022/02/22 01:58:34;;;;;;;33.50;6.40;;;6.50;99.90;;;;;;5075146;28;20468;-64
2022/02/22 02:01:01;;;;;;;21.67;6.10;;;6.50;99.90;;;;;;5075570;28;20445;-64
2022/02/22 02:03:28;;;;;;;33.33;5.43;;;6.50;99.90;;;;;;5075493;28;20443;-64
2022/02/22 02:05:55;;;;;;;31.60;5.20;;;6.50;99.90;;;;;;5075393;28;20448;-64
2022/02/22 02:08:23;;;;;;;30.07;5.20;;;6.40;99.90;;;;;;5074960;28;20484;-64
2022/02/22 02:10:51;;;;;;;26.37;5.83;;;6.50;99.90;;;;;;5075705;28;20523;-64
2022/02/22 02:13:17;;;;;;;35.20;5.97;;;6.50;99.90;;;;;;5074963;28;20966;-64
2022/02/22 02:15:44;;;;;;;28.07;5.03;;;6.50;99.90;;;;;;5074911;28;20816;-64
2022/02/22 02:18:11;;;;;;;28.43;5.00;;;6.50;99.90;;;;;;5074836;28;20967;-64
2022/02/22 02:20:38;;;;;;;28.03;4.30;;;6.50;99.90;;;;;;5075128;28;20449;-64
2022/02/22 02:23:06;;;;;;;29.47;5.30;;;6.50;99.90;;;;;;5074875;28;20780;-64
2022/02/22 02:25:33;;;;;;;18.07;4.63;;;6.40;99.90;;;;;;5074664;28;20448;-64
2022/02/22 02:28:00;;;;;;;30.50;5.43;;;6.40;99.90;;;;;;5074983;28;20473;-64
2022/02/22 02:30:26;;;;;;;28.13;6.10;;;6.30;99.90;;;;;;5074534;28;20857;-64
2022/02/22 02:32:53;;;;;;;28.73;5.00;;;6.30;99.90;;;;;;5073934;28;20449;-63
2022/02/22 02:35:20;;;;;;;26.33;6.70;;;6.30;99.90;;;;;;5074176;28;20433;-64
2022/02/22 02:37:47;;;;;;;35.37;8.80;;;6.20;99.90;;;;;;5074739;28;20471;-64
2022/02/22 02:40:15;;;;;;;34.93;6.40;;;6.20;99.90;;;;;;5074782;28;20519;-63
2022/02/22 02:42:43;;;;;;;31.60;6.27;;;6.20;99.90;;;;;;5074635;28;20473;-64
2022/02/22 02:45:11;;;;;;;33.37;6.03;;;6.20;99.90;;;;;;5074615;28;20453;-63
2022/02/22 02:47:38;;;;;;;37.50;5.13;;;6.10;99.90;;;;;;5074607;28;20480;-64
2022/02/22 02:50:06;;;;;;;25.80;6.10;;;6.10;99.90;;;;;;5074504;28;20928;-63
2022/02/22 02:52:33;;;;;;;30.60;6.03;;;6.10;99.90;;;;;;5074433;28;20484;-63
2022/02/22 02:55:00;;;;;;;32.47;7.17;;;6.10;99.90;;;;;;5074471;28;20441;-63
2022/02/22 02:57:29;;;;;;;26.20;7.10;;;6.10;99.90;;;;;;5074310;28;20444;-64
2022/02/22 02:59:56;;;;;;;28.03;6.13;;;6.10;99.90;;;;;;5074304;28;20500;-63
2022/02/22 03:02:23;;;;;;;29.63;6.20;;;6.00;99.90;;;;;;5074406;28;20447;-64
2022/02/22 03:04:49;;;;;;;34.43;7.43;;;6.10;99.90;;;;;;5074400;28;20504;-64
2022/02/22 03:07:16;;;;;;;38.43;6.90;;;6.00;99.90;;;;;;5074115;28;20463;-64
2022/02/22 03:09:43;;;;;;;25.37;6.00;;;6.00;99.90;;;;;;5074245;28;20429;-63
2022/02/22 03:12:10;;;;;;;22.33;4.70;;;6.10;99.90;;;;;;5073859;28;20468;-64
2022/02/22 03:14:38;;;;;;;30.27;6.60;;;6.10;99.90;;;;;;5074092;28;20452;-63
2022/02/22 03:17:05;;;;;;;25.73;6.23;;;6.00;99.90;;;;;;5074050;28;20853;-63
2022/02/22 03:19:32;;;;;;;36.80;6.33;;;6.00;99.90;;;;;;5073769;28;20476;-63
2022/02/22 03:21:58;;;;;;;36.57;6.33;;;6.00;99.90;;;;;;5073947;28;20452;-64
2022/02/22 03:24:25;;;;;;;21.80;5.53;;;5.90;99.90;;;;;;5073818;28;20455;-63
2022/02/22 03:26:52;;;;;;;26.30;5.47;;;5.90;99.90;;;;;;5073895;28;20786;-63
2022/02/22 03:29:18;;;;;;;26.67;5.17;;;5.80;99.90;;;;;;5073745;28;20468;-65
2022/02/22 03:31:47;;;;;;;31.63;5.97;;;5.80;99.90;;;;;;5073620;28;20480;-66
2022/02/22 03:34:13;;;;;;;31.43;6.20;;;5.70;99.90;;;;;;5073777;28;20453;-63
2022/02/22 03:36:41;;;;;;;32.53;5.47;;;5.70;99.90;;;;;;5073414;28;20808;-63
2022/02/22 03:39:08;;;;;;;25.47;6.07;;;5.60;99.90;;;;;;5073483;28;20515;-63
2022/02/22 03:41:35;;;;;;;31.67;6.57;;;5.60;99.90;;;;;;5073523;28;20449;-63
2022/02/22 03:44:01;;;;;;;32.30;7.60;;;5.70;99.90;;;;;;5073299;28;20955;-63
2022/02/22 03:46:28;;;;;;;36.43;6.90;;;5.60;99.90;;;;;;5073254;28;20829;-63
2022/02/22 03:48:56;;;;;;;23.93;5.20;;;5.60;99.90;;;;;;5073474;28;20814;-64
2022/02/22 03:51:23;;;;;;;33.50;5.00;;;5.60;99.90;;;;;;5073510;28;20559;-64
2022/02/22 03:53:50;;;;;;;27.03;4.80;;;5.60;99.90;;;;;;5073223;28;20927;-63
2022/02/22 03:56:17;;;;;;;26.57;4.90;;;5.60;99.90;;;;;;5073412;28;20452;-64
2022/02/22 03:58:44;;;;;;;39.10;6.13;;;5.60;99.90;;;;;;5073901;28;20476;-64
2022/02/22 04:01:11;;;;;;;23.10;6.43;;;5.60;99.90;;;;;;5073666;28;20436;-64
2022/02/22 04:03:38;;;;;;;28.23;5.80;;;5.60;99.90;;;;;;5073186;28;20970;-64
2022/02/22 04:06:06;;;;;;;38.43;6.03;;;5.50;99.90;;;;;;5073390;28;20455;-64
2022/02/22 04:08:33;;;;;;;28.90;6.37;;;5.60;99.90;;;;;;5072941;28;20499;-64
2022/02/22 04:11:00;;;;;;;27.00;4.80;;;5.60;99.90;;;;;;5073253;28;20451;-64
2022/02/22 04:13:26;;;;;;;23.50;5.07;;;5.50;99.90;;;;;;5073282;28;20459;-64
2022/02/22 04:15:53;;;;;;;28.20;5.00;;;5.50;99.90;;;;;;5072991;28;20478;-64
2022/02/22 04:18:20;;;;;;;32.33;5.73;;;5.50;99.90;;;;;;5073191;28;20828;-64
2022/02/22 04:20:47;;;;;;;33.50;5.77;;;5.50;99.90;;;;;;5072941;28;20955;-63
2022/02/22 04:23:15;;;;;;;27.53;5.73;;;5.50;99.90;;;;;;5073192;28;20448;-63
2022/02/22 04:25:42;;;;;;;26.10;5.13;;;5.40;99.90;;;;;;5073102;28;20471;-64
2022/02/22 04:28:10;;;;;;;19.53;4.67;;;5.40;99.90;;;;;;5073039;28;20460;-64
2022/02/22 04:30:36;;;;;;;29.13;6.07;;;5.40;99.90;;;;;;5073148;28;20875;-64
2022/02/22 04:33:03;;;;;;;33.13;4.70;;;5.40;99.90;;;;;;5073069;28;20480;-63
2022/02/22 04:35:30;;;;;;;26.57;5.10;;;5.40;99.90;;;;;;5073058;28;20447;-63
2022/02/22 04:37:57;;;;;;;30.63;5.67;;;5.40;99.90;;;;;;5072964;28;20789;-64
2022/02/22 04:40:25;;;;;;;45.90;5.30;;;5.30;99.90;;;;;;5073064;28;20444;-63
2022/02/22 04:42:52;;;;;;;19.47;5.60;;;5.30;99.90;;;;;;5072637;28;20449;-63
2022/02/22 04:45:19;;;;;;;25.60;5.87;;;5.40;99.90;;;;;;5073019;28;20532;-63
2022/02/22 04:47:46;;;;;;;35.20;5.30;;;5.30;99.90;;;;;;5072948;28;20495;-64
2022/02/22 04:50:13;;;;;;;27.63;4.77;;;5.40;99.90;;;;;;5072970;28;20429;-64
2022/02/22 04:52:40;;;;;;;30.60;5.67;;;5.30;99.90;;;;;;5072850;28;20487;-64
2022/02/22 04:55:07;;;;;;;30.43;5.80;;;5.30;99.90;;;;;;5072872;28;20444;-64
2022/02/22 04:57:36;;;;;;;18.40;4.77;;;5.30;99.90;;;;;;5074877;28;20451;-64
2022/02/22 05:00:04;;;;;;;35.80;6.07;;;5.30;99.90;;;;;;5076437;28;20460;-63
2022/02/22 05:02:31;;;;;;;28.77;5.53;;;5.30;99.90;;;;;;5076298;28;20447;-63
2022/02/22 05:04:58;;;;;;;23.93;5.27;;;5.30;99.90;;;;;;5076089;28;20944;-63
2022/02/22 05:07:24;;;;;;;17.27;5.07;;;5.20;99.90;;;;;;5076246;28;20464;-64
2022/02/22 05:09:51;;;;;;;26.20;6.43;;;5.30;99.90;;;;;;5075968;28;20989;-63
2022/02/22 05:12:18;;;;;;;30.33;5.47;;;5.20;99.90;;;;;;5075794;28;20472;-64
2022/02/22 05:14:46;;;;;;;32.77;5.33;;;5.20;99.90;;;;;;5076217;28;20429;-63
2022/02/22 05:17:13;;;;;;;28.93;5.17;;;5.30;99.90;;;;;;5075817;28;20970;-63
2022/02/22 05:19:39;;;;;;;31.73;4.70;;;5.30;99.90;;;;;;5076545;28;20517;-63
2022/02/22 05:22:07;;;;;;;27.93;4.67;;;5.30;99.90;;;;;;5075955;28;20440;-64
2022/02/22 05:24:34;;;;;;;26.77;5.73;;;5.30;99.90;;;;;;5075982;28;20449;-64
2022/02/22 05:27:01;;;;;;;40.87;5.67;;;5.30;99.90;;;;;;5076067;28;20452;-64
2022/02/22 05:29:27;;;;;;;34.47;5.60;;;5.30;99.90;;;;;;5075740;28;20804;-63
2022/02/22 05:31:55;;;;;;;37.70;6.57;;;5.30;99.90;;;;;;5075976;28;20476;-64
2022/02/22 05:34:22;;;;;;;27.97;5.70;;;5.30;99.90;;;;;;5076047;28;20520;-64
2022/02/22 05:36:49;;;;;;;26.00;4.80;;;5.30;99.90;;;;;;5075930;28;20445;-64
2022/02/22 05:39:16;;;;;;;26.97;5.30;;;5.20;99.90;;;;;;5075528;28;20979;-64
2022/02/22 05:41:42;;;;;;;42.03;6.70;;;5.20;99.90;;;;;;5075973;28;20454;-64
2022/02/22 05:44:09;;;;;;;31.77;8.77;;;5.20;99.90;;;;;;5076245;28;20445;-63
2022/02/22 05:46:36;;;;;;;29.40;10.57;;;5.20;99.90;;;;;;5075857;28;20547;-63
2022/02/22 05:49:04;;;;;;;50.23;12.73;;;5.10;99.90;;;;;;5075772;28;20480;-64
2022/02/22 05:51:31;;;;;;;31.30;11.43;;;5.10;99.90;;;;;;5076342;28;20441;-64
2022/02/22 05:53:57;;;;;;;36.37;8.70;;;5.10;99.90;;;;;;5075608;28;20491;-64
2022/02/22 05:56:24;;;;;;;46.97;8.10;;;5.10;99.90;;;;;;5075205;28;20456;-64
2022/02/22 05:58:51;;;;;;;25.40;5.20;;;5.10;99.90;;;;;;5075475;28;20522;-64
2022/02/22 06:01:18;;;;;;;43.53;7.50;;;5.10;99.90;;;;;;5075549;28;20807;-64
2022/02/22 06:03:44;;;;;;;26.53;5.87;;;5.10;99.90;;;;;;5075377;28;20437;-63
2022/02/22 06:06:12;;;;;;;21.90;5.30;;;5.10;99.90;;;;;;5075551;28;20444;-63
2022/02/22 06:08:39;;;;;;;21.57;5.10;;;5.20;99.90;;;;;;5074797;28;20852;-63
2022/02/22 06:11:06;;;;;;;25.87;4.50;;;5.10;99.90;;;;;;5074822;28;20936;-63
2022/02/22 06:13:32;;;;;;;17.60;4.43;;;5.10;99.90;;;;;;5075131;28;20480;-64
2022/02/22 06:15:59;;;;;;;25.83;5.77;;;5.10;99.90;;;;;;5075191;28;20445;-63
2022/02/22 06:18:26;;;;;;;23.87;4.00;;;5.10;99.90;;;;;;5075282;28;20467;-63
2022/02/22 06:20:53;;;;;;;28.47;5.67;;;5.10;99.90;;;;;;5075079;28;20544;-63
2022/02/22 06:23:21;;;;;;;29.13;6.03;;;5.00;99.90;;;;;;5074768;28;20939;-64
2022/02/22 06:25:48;;;;;;;20.93;5.30;;;5.10;99.90;;;;;;5075051;28;20443;-63
2022/02/22 06:28:15;;;;;;;30.83;5.87;;;5.10;99.90;;;;;;5074963;28;20460;-63
2022/02/22 06:30:41;;;;;;;32.90;8.83;;;5.10;99.90;;;;;;5074909;28;20453;-63
2022/02/22 06:33:08;;;;;;;21.13;5.63;;;5.10;99.90;;;;;;5074532;28;20487;-64
2022/02/22 06:35:35;;;;;;;24.73;5.17;;;5.20;99.90;;;;;;5074893;28;20444;-63
2022/02/22 06:38:01;;;;;;;26.23;6.83;;;5.20;99.90;;;;;;5075314;28;20535;-63
2022/02/22 06:40:31;;;;;;;21.97;6.10;;;5.10;99.90;;;;;;5075163;28;20445;-64
2022/02/22 06:42:58;;;;;;;33.13;5.70;;;5.10;99.90;;;;;;5074803;28;20876;-64
2022/02/22 06:45:25;;;;;;;20.97;4.70;;;5.10;99.90;;;;;;5074923;28;20445;-63
2022/02/22 06:47:52;;;;;;;27.10;7.30;;;5.10;99.90;;;;;;5074509;28;20461;-64
2022/02/22 06:50:18;;;;;;;29.93;5.93;;;5.10;99.90;;;;;;5074065;28;20453;-63
2022/02/22 06:52:45;;;;;;;22.50;5.00;;;5.10;99.90;;;;;;5074739;28;20483;-63
2022/02/22 06:55:14;;;;;;;33.40;6.80;;;5.10;99.90;;;;;;5074297;28;20429;-63
2022/02/22 06:57:42;;;;;;;24.57;5.60;;;5.10;99.90;;;;;;5074375;28;20471;-63
2022/02/22 07:00:12;;;;;;;27.40;4.87;;;5.20;99.90;;;;;;5074270;28;20440;-63
2022/02/22 07:02:40;;;;;;;34.17;5.90;;;5.20;99.90;;;;;;5074957;28;20441;-63
2022/02/22 07:05:08;;;;;;;21.90;5.30;;;5.20;99.90;;;;;;5074200;28;20452;-63
2022/02/22 07:07:36;;;;;;;30.37;4.87;;;5.20;99.90;;;;;;5073620;28;20975;-63
2022/02/22 07:10:03;;;;;;;27.57;5.60;;;5.30;99.90;;;;;;5073957;28;20539;-63
2022/02/22 07:12:30;;;;;;;17.20;4.70;;;5.30;99.90;;;;;;5073884;28;20488;-63
2022/02/22 07:14:57;;;;;;;17.57;4.47;;;5.30;99.90;;;;;;5073910;28;20452;-63
2022/02/22 07:17:25;;;;;;;16.73;4.50;;;5.30;99.90;;;;;;5074473;28;20449;-64
2022/02/22 07:19:52;;;;;;;17.60;4.10;;;5.40;99.90;;;;;;5073288;28;20456;-64
2022/02/22 07:22:19;;;;;;;21.87;4.73;;;5.40;99.90;;;;;;5073990;28;20462;-64
2022/02/22 07:24:45;;;;;;;24.60;4.50;;;5.50;99.90;;;;;;5074087;28;20440;-64
2022/02/22 07:27:12;;;;;;;26.90;5.57;;;5.50;99.90;;;;;;5073924;28;20497;-64
2022/02/22 07:29:39;;;;;;;26.37;4.73;;;5.50;99.90;;;;;;5073645;28;20460;-64
2022/02/22 07:32:06;;;;;;;20.97;6.00;;;5.60;99.90;;;;;;5073697;28;20429;-64
2022/02/22 07:34:34;;;;;;;23.20;5.53;;;5.60;99.90;;;;;;5073686;28;20548;-63
2022/02/22 07:37:01;;;;;;;18.50;4.47;;;5.60;99.90;;;;;;5073535;28;20452;-63
2022/02/22 07:39:29;;;;;;;15.23;4.73;;;5.60;99.90;;;;;;5073496;28;20543;-63
2022/02/22 07:41:55;;;;;;;22.50;5.70;;;5.70;99.90;;;;;;5073627;28;20440;-64
2022/02/22 07:44:22;;;;;;;28.17;4.90;;;5.80;99.90;;;;;;5073643;28;20452;-64
2022/02/22 07:46:49;;;;;;;14.10;4.10;;;5.80;99.90;;;;;;5073302;28;20445;-64
2022/02/22 07:49:15;;;;;;;26.03;5.77;;;5.90;99.90;;;;;;5073943;28;20460;-71
2022/02/22 07:51:43;;;;;;;19.90;4.20;;;5.90;99.90;;;;;;5073399;28;20452;-65
2022/02/22 07:54:10;;;;;;;24.33;5.03;;;5.80;99.90;;;;;;5073348;28;20488;-64
2022/02/22 07:56:37;;;;;;;17.93;4.00;;;5.90;99.90;;;;;;5073383;28;20440;-64
2022/02/22 07:59:04;;;;;;;15.10;4.60;;;6.00;99.90;;;;;;5073382;28;20475;-65
2022/02/22 08:01:31;;;;;;;19.80;5.13;;;6.10;99.90;;;;;;5073387;28;20452;-64
2022/02/22 08:03:57;;;;;;;13.30;3.70;;;6.20;99.90;;;;;;5073740;28;20461;-65
2022/02/22 08:06:25;;;;;;;21.63;4.57;;;6.30;99.90;;;;;;5072940;28;20445;-63
2022/02/22 08:08:53;;;;;;;16.93;3.77;;;6.40;99.90;;;;;;5073936;28;20513;-63
2022/02/22 08:11:20;;;;;;;19.77;5.10;;;6.40;99.90;;;;;;5073332;28;20448;-63
2022/02/22 08:13:47;;;;;;;15.33;4.30;;;6.50;99.90;;;;;;5073010;28;20507;-63
2022/02/22 08:16:14;;;;;;;13.20;3.83;;;6.50;99.90;;;;;;5072965;28;20936;-63
2022/02/22 08:18:41;;;;;;;19.63;4.27;;;6.50;99.90;;;;;;5073220;28;20911;-63
2022/02/22 08:21:07;;;;;;;23.40;3.87;;;6.50;99.90;;;;;;5073101;28;20448;-63
2022/02/22 08:23:34;;;;;;;22.57;4.23;;;6.60;99.90;;;;;;5073227;28;20468;-63
2022/02/22 08:26:04;;;;;;;23.73;4.63;;;6.60;99.90;;;;;;5073155;28;20448;-63
2022/02/22 08:28:32;;;;;;;13.17;3.60;;;6.70;99.90;;;;;;5073139;28;20496;-64
2022/02/22 08:30:58;;;;;;;16.87;3.87;;;6.80;99.90;;;;;;5073162;28;20453;-65
2022/02/22 08:33:25;;;;;;;17.63;3.83;;;6.90;99.90;;;;;;5076445;28;20468;-63
2022/02/22 08:35:53;;;;;;;12.40;4.03;;;7.00;99.90;;;;;;5077083;28;20444;-63
2022/02/22 08:38:20;;;;;;;15.50;3.80;;;7.10;99.90;;;;;;5077049;28;20509;-63
2022/02/22 08:40:47;;;;;;;15.43;4.83;;;7.30;99.90;;;;;;5077001;28;20490;-63
2022/02/22 08:43:15;;;;;;;13.60;3.73;;;7.50;99.90;;;;;;5077052;28;20448;-64
2022/02/22 08:45:43;;;;;;;17.83;5.20;;;7.60;99.90;;;;;;5076485;28;20448;-64
2022/02/22 08:48:10;;;;;;;16.93;4.80;;;7.70;99.90;;;;;;5077569;28;20803;-63
2022/02/22 08:50:37;;;;;;;20.40;5.00;;;7.80;99.90;;;;;;5076775;28;20439;-63
2022/02/22 08:53:04;;;;;;;17.10;5.80;;;7.90;99.90;;;;;;5076686;28;20480;-63
2022/02/22 08:55:31;;;;;;;13.73;5.50;;;8.00;99.90;;;;;;5076715;28;20470;-63
2022/02/22 08:57:58;;;;;;;20.17;6.30;;;8.20;99.90;;;;;;5076548;28;20480;-63
2022/02/22 09:00:28;;;;;;;19.33;6.30;;;8.20;99.90;;;;;;5076603;28;20436;-63
2022/02/22 09:02:58;;;;;;;22.57;8.23;;;8.30;99.90;;;;;;5076490;28;20437;-63
2022/02/22 09:05:25;;;;;;;24.37;6.77;;;8.40;99.90;;;;;;5076587;28;20468;-63
2022/02/22 09:07:52;;;;;;;17.47;8.03;;;8.50;99.90;;;;;;5076094;28;20479;-64
2022/02/22 09:10:19;;;;;;;13.03;7.53;;;8.60;99.90;;;;;;5076469;28;20787;-63
2022/02/22 09:12:46;;;;;;;18.70;8.53;;;8.70;99.90;;;;;;5076296;28;20483;-63
2022/02/22 09:15:14;;;;;;;17.13;8.67;;;8.70;99.90;;;;;;5076204;28;20958;-63
2022/02/22 09:17:43;;;;;;;21.67;10.77;;;8.80;99.90;;;;;;5076182;28;20448;-64
2022/02/22 09:20:14;;;;;;;21.90;8.70;;;8.90;99.90;;;;;;5076828;28;20432;-63
2022/02/22 09:22:41;;;;;;;18.30;8.80;;;8.90;99.90;;;;;;5076052;28;20441;-63
2022/02/22 09:25:10;;;;;;;19.43;8.40;;;9.00;99.90;;;;;;5076197;28;20437;-63
2022/02/22 09:27:37;;;;;;;20.70;10.00;;;9.00;99.90;;;;;;5076021;28;20448;-64
2022/02/22 09:30:05;;;;;;;24.70;9.80;;;9.00;99.90;;;;;;5076140;28;20451;-63
2022/02/22 09:32:32;;;;;;;23.57;10.50;;;9.10;99.90;;;;;;5075865;28;20543;-63
2022/02/22 09:35:00;;;;;;;23.10;8.57;;;9.20;99.90;;;;;;5076002;28;20433;-64
2022/02/22 09:37:27;;;;;;;19.83;7.57;;;9.30;99.90;;;;;;5075909;28;20453;-65
2022/02/22 09:39:53;;;;;;;20.27;7.30;;;9.50;99.90;;;;;;5075595;28;20429;-64
2022/02/22 09:42:20;;;;;;;22.87;7.53;;;9.50;99.90;;;;;;5075394;28;20432;-63
2022/02/22 09:44:47;;;;;;;15.83;6.77;;;9.50;99.90;;;;;;5075798;28;20430;-63
2022/02/22 09:47:14;;;;;;;14.80;5.80;;;9.50;99.90;;;;;;5075450;28;20918;-63
2022/02/22 09:49:40;;;;;;;21.40;9.47;;;9.60;99.90;;;;;;5075614;28;20460;-63
2022/02/22 09:52:08;;;;;;;20.40;10.90;;;9.70;99.90;;;;;;5075485;28;20556;-63
2022/02/22 09:54:35;;;;;;;21.80;7.23;;;9.80;99.90;;;;;;5075388;28;20496;-63
2022/02/22 09:57:02;;;;;;;23.43;6.30;;;10.00;99.90;;;;;;5075281;28;20454;-63
2022/02/22 09:59:29;;;;;;;12.90;6.65;;;10.20;99.90;;;;;;5075011;28;20805;-64
2022/02/22 10:01:58;;;;;;;16.77;6.07;;;10.20;99.90;;;;;;5075356;28;20198;-63
2022/02/22 10:04:26;;;;;;;14.83;5.00;;;10.30;99.90;;;;;;5075324;28;20463;-64
2022/02/22 10:07:01;;;;;;;17.37;5.37;;;10.30;99.90;;;;;;5075077;28;20878;-64
2022/02/22 10:09:29;;;;;;;18.53;5.07;;;10.20;99.90;;;;;;5075238;28;20472;-63
2022/02/22 10:11:56;;;;;;;13.47;6.00;;;10.00;99.90;;;;;;5075026;28;20440;-64
2022/02/22 10:14:24;;;;;;;18.33;5.30;;;10.00;99.90;;;;;;5074762;28;21002;-63
2022/02/22 10:16:53;;;;;;;10.67;4.17;;;10.00;99.90;;;;;;5075423;28;20820;-64
2022/02/22 10:19:21;;;;;;;17.03;5.60;;;10.00;99.90;;;;;;5075211;28;20473;-63
2022/02/22 10:21:52;;;;;;;14.87;4.97;;;9.90;99.90;;;;;;5075114;28;20452;-64
2022/02/22 10:24:20;;;;;;;16.17;5.53;;;9.90;99.90;;;;;;5074965;28;20429;-64
2022/02/22 10:26:48;;;;;;;12.07;4.93;;;10.00;99.90;;;;;;5075969;28;20468;-63
2022/02/22 10:29:16;;;;;;;17.53;6.97;;;10.00;99.90;;;;;;5074955;28;20465;-63
2022/02/22 10:31:43;;;;;;;17.77;5.20;;;10.00;99.90;;;;;;5075136;28;20906;-63
2022/02/22 10:34:10;;;;;;;24.80;6.03;;;10.00;99.90;;;;;;5074974;28;20476;-63
2022/02/22 10:36:38;;;;;;;20.83;4.47;;;10.00;99.90;;;;;;5074651;28;20433;-64
2022/02/22 10:39:07;;;;;;;19.90;4.27;;;9.90;99.90;;;;;;5074776;28;20468;-63
2022/02/22 10:41:38;;;;;;;25.83;4.77;;;9.80;99.90;;;;;;5075606;28;20775;-63
2022/02/22 10:44:08;;;;;;;23.07;5.23;;;9.60;99.90;;;;;;5074910;28;20476;-63
2022/02/22 10:46:37;;;;;;;19.83;5.27;;;9.60;99.90;;;;;;5074722;28;20823;-63
2022/02/22 10:49:06;;;;;;;21.37;4.20;;;9.50;99.90;;;;;;5074860;28;20503;-64
2022/02/22 10:51:36;;;;;;;16.63;4.13;;;9.40;99.90;;;;;;5074550;28;20444;-63
2022/02/22 10:54:03;;;;;;;20.73;4.77;;;9.40;99.90;;;;;;5073853;28;20565;-64
2022/02/22 10:56:32;;;;;;;14.67;4.20;;;9.30;99.90;;;;;;5074707;28;20445;-63
2022/02/22 10:58:59;;;;;;;15.20;3.93;;;9.30;99.90;;;;;;5074966;28;20477;-63
2022/02/22 11:01:28;;;;;;;25.03;4.60;;;9.20;99.90;;;;;;5074417;28;20451;-63
2022/02/22 11:03:55;;;;;;;27.00;6.00;;;9.20;99.90;;;;;;5074159;28;20516;-63
2022/02/22 11:06:22;;;;;;;16.53;4.90;;;9.10;99.90;;;;;;5073958;28;20498;-63
2022/02/22 11:08:50;;;;;;;25.77;5.90;;;9.20;99.90;;;;;;5074001;28;20456;-63
2022/02/22 11:11:21;;;;;;;16.60;4.77;;;9.30;99.90;;;;;;5074085;28;20424;-63
2022/02/22 11:13:57;;;;;;;17.77;4.37;;;9.50;99.90;;;;;;5074064;28;20465;-63
2022/02/22 11:16:24;;;;;;;16.97;4.60;;;9.50;99.90;;;;;;5074113;28;20461;-63
2022/02/22 11:18:54;;;;;;;18.70;4.83;;;9.40;99.90;;;;;;5073913;28;20483;-63
2022/02/22 11:21:23;;;;;;;16.77;4.80;;;9.50;99.90;;;;;;5073529;28;20931;-64
2022/02/22 11:23:50;;;;;;;23.33;4.50;;;9.60;99.90;;;;;;5073731;28;20436;-64
2022/02/22 11:26:19;;;;;;;21.50;4.27;;;9.60;99.90;;;;;;5073379;28;20955;-64
2022/02/22 11:28:48;;;;;;;20.07;4.07;;;9.70;99.90;;;;;;5073598;28;20468;-64
2022/02/22 11:31:17;;;;;;;13.87;4.27;;;9.60;99.90;;;;;;5073614;28;20516;-65
2022/02/22 11:33:46;;;;;;;20.67;5.97;;;9.70;99.90;;;;;;5073476;28;21024;-64
2022/02/22 11:36:26;;;;;;;24.37;5.20;;;9.80;99.90;;;;;;5073716;28;20463;-65
2022/02/22 11:38:53;;;;;;;17.27;5.00;;;9.80;99.90;;;;;;5073744;28;20543;-64
2022/02/22 11:41:23;;;;;;;22.03;5.63;;;9.70;99.90;;;;;;5073600;28;20463;-64
2022/02/22 11:43:59;;;;;;;20.77;4.83;;;9.80;99.90;;;;;;5073672;28;20436;-64
2022/02/22 11:46:44;;;;;;;13.53;4.53;;;9.90;99.90;;;;;;5073640;28;20432;-65
2022/02/22 11:49:19;;;;;;;19.37;4.33;;;10.10;99.90;;;;;;5073585;28;20560;-64
2022/02/22 11:51:52;;;;;;;18.63;4.47;;;10.10;99.90;;;;;;5074072;28;20440;-64
2022/02/22 11:54:21;;;;;;;18.30;4.23;;;10.20;99.90;;;;;;5073494;28;20826;-65
2022/02/22 11:56:48;;;;;;;20.33;4.30;;;10.20;99.90;;;;;;5073521;28;20445;-64
2022/02/22 11:59:20;;;;;;;19.23;4.80;;;10.10;99.90;;;;;;5074292;28;20468;-65
2022/02/22 12:01:49;;;;;;;16.17;3.73;;;10.00;99.90;;;;;;5073179;28;20970;-64
2022/02/22 12:04:23;;;;;;;18.50;4.03;;;10.00;99.90;;;;;;5073364;28;20447;-64
2022/02/22 12:06:53;;;;;;;22.50;3.90;;;10.10;99.90;;;;;;5072707;28;20970;-65
2022/02/22 12:09:22;;;;;;;16.27;4.37;;;10.00;99.90;;;;;;5073260;28;20464;-64
2022/02/22 12:11:49;;;;;;;16.17;4.40;;;9.90;99.90;;;;;;5073176;28;20444;-65
2022/02/22 12:14:15;;;;;;;24.93;4.43;;;9.70;99.90;;;;;;5073260;28;20488;-64
2022/02/22 12:16:44;;;;;;;15.90;4.67;;;9.60;99.90;;;;;;5072996;28;20456;-65
2022/02/22 12:19:11;;;;;;;16.03;5.30;;;9.50;99.90;;;;;;5072958;28;20838;-64
2022/02/22 12:21:38;;;;;;;21.77;4.60;;;9.40;99.90;;;;;;5073278;28;20448;-64
2022/02/22 12:24:12;;;;;;;18.73;3.90;;;9.30;99.90;;;;;;5072959;28;20451;-65
2022/02/22 12:26:39;;;;;;;16.33;3.70;;;9.20;99.90;;;;;;5073269;28;20429;-65
2022/02/22 12:29:08;;;;;;;19.73;3.87;;;9.20;99.90;;;;;;5073127;28;20469;-65
2022/02/22 12:31:36;;;;;;;18.00;5.10;;;9.10;99.90;;;;;;5073138;28;20497;-65
2022/02/22 12:34:04;;;;;;;14.80;4.57;;;9.10;99.90;;;;;;5073011;28;20487;-65
2022/02/22 12:36:31;;;;;;;18.13;4.20;;;9.10;99.90;;;;;;5072883;28;20433;-65
2022/02/22 12:38:58;;;;;;;16.63;4.40;;;9.10;99.90;;;;;;5073100;28;20815;-65
2022/02/22 12:41:32;;;;;;;17.43;4.40;;;9.00;99.90;;;;;;5073066;28;20455;-63
2022/02/22 12:43:59;;;;;;;19.50;4.60;;;8.90;99.90;;;;;;5073227;28;20425;-63
2022/02/22 12:46:26;;;;;;;24.40;4.47;;;8.90;99.90;;;;;;5073036;28;20449;-63